sensor_id;sensor_type;location;lat;lon;timestamp;pressure;altitude;pressure_sealevel;temperature;humidity
31285;BME280;56605;51.516;6.742;2023-05-10T00:00:38;100665.78;;;12.47;100.00
31285;BME280;56605;51.516;6.742;2023-05-10T00:03:04;100665.13;;;12.30;100.00
31285;BME280;56605;51.516;6.742;2023-05-10T00:05:30;100666.44;;;12.34;100.00
31285;BME280;56605;51.516;6.742;2023-05-10T00:07:55;100666.69;;;12.24;100.00
31285;BME280;56605;51.516;6.742;2023-05-10T00:10:21;100668.59;;;12.15;100.00
31285;BME280;56605;51.516;6.742;2023-05-10T00:12:46;100668.28;;;12.10;100.00
31285;BME280;56605;51.516;6.742;2023-05-10T00:15:11;100664.91;;;12.16;100.00
31285;BME280;56605;51.516;6.742;2023-05-10T00:17:36;100665.97;;;12.07;100.00
31285;BME280;56605;51.516;6.742;2023-05-10T00:20:02;100671.16;;;12.09;100.00
31285;BME280;56605;51.516;6.742;2023-05-10T00:22:30;100665.16;;;12.07;100.00
31285;BME280;56605;51.516;6.742;2023-05-10T00:24:55;100665.97;;;12.07;100.00
31285;BME280;56605;51.516;6.742;2023-05-10T00:27:20;100663.78;;;12.02;100.00
31285;BME280;56605;51.516;6.742;2023-05-10T00:29:46;100663.00;;;12.02;100.00
31285;BME280;56605;51.516;6.742;2023-05-10T00:32:11;100663.44;;;12.05;100.00
31285;BME280;56605;51.516;6.742;2023-05-10T00:34:36;100665.97;;;12.07;100.00
31285;BME280;56605;51.516;6.742;2023-05-10T00:37:01;100666.97;;;12.06;100.00
31285;BME280;56605;51.516;6.742;2023-05-10T00:39:27;100659.81;;;12.07;100.00
31285;BME280;56605;51.516;6.742;2023-05-10T00:41:53;100666.13;;;12.05;100.00
31285;BME280;56605;51.516;6.742;2023-05-10T00:44:19;100676.81;;;12.05;100.00
31285;BME280;56605;51.516;6.742;2023-05-10T00:46:44;100668.19;;;11.95;100.00
31285;BME280;56605;51.516;6.742;2023-05-10T00:49:10;100671.53;;;11.97;100.00
31285;BME280;56605;51.516;6.742;2023-05-10T00:51:36;100662.69;;;11.97;100.00
31285;BME280;56605;51.516;6.742;2023-05-10T00:54:02;100664.47;;;12.04;100.00
31285;BME280;56605;51.516;6.742;2023-05-10T00:56:28;100666.84;;;11.99;100.00
31285;BME280;56605;51.516;6.742;2023-05-10T00:58:54;100670.16;;;12.01;100.00
31285;BME280;56605;51.516;6.742;2023-05-10T01:01:20;100668.34;;;12.02;100.00
31285;BME280;56605;51.516;6.742;2023-05-10T01:03:46;100673.03;;;12.00;100.00
31285;BME280;56605;51.516;6.742;2023-05-10T01:06:12;100669.53;;;11.99;100.00
31285;BME280;56605;51.516;6.742;2023-05-10T01:08:38;100675.41;;;11.95;100.00
31285;BME280;56605;51.516;6.742;2023-05-10T01:11:03;100673.72;;;11.93;100.00
31285;BME280;56605;51.516;6.742;2023-05-10T01:13:33;100679.75;;;11.96;100.00
31285;BME280;56605;51.516;6.742;2023-05-10T01:15:59;100682.69;;;12.01;100.00
31285;BME280;56605;51.516;6.742;2023-05-10T01:18:27;100679.63;;;11.89;100.00
31285;BME280;56605;51.516;6.742;2023-05-10T01:21:03;100681.41;;;11.97;100.00
31285;BME280;56605;51.516;6.742;2023-05-10T01:28:39;100678.63;;;11.90;100.00
31285;BME280;56605;51.516;6.742;2023-05-10T01:34:16;100676.47;;;11.85;100.00
31285;BME280;56605;51.516;6.742;2023-05-10T01:39:49;100679.81;;;11.87;100.00
31285;BME280;56605;51.516;6.742;2023-05-10T01:42:20;100678.66;;;11.82;100.00
31285;BME280;56605;51.516;6.742;2023-05-10T01:44:54;100685.69;;;11.83;100.00
31285;BME280;56605;51.516;6.742;2023-05-10T01:50:02;100687.88;;;11.79;100.00
31285;BME280;56605;51.516;6.742;2023-05-10T01:52:33;100696.25;;;11.76;100.00
31285;BME280;56605;51.516;6.742;2023-05-10T01:55:05;100689.91;;;11.77;100.00
31285;BME280;56605;51.516;6.742;2023-05-10T01:57:35;100687.22;;;11.77;100.00
31285;BME280;56605;51.516;6.742;2023-05-10T02:00:03;100691.91;;;11.75;100.00
31285;BME280;56605;51.516;6.742;2023-05-10T02:02:33;100685.38;;;11.77;100.00
31285;BME280;56605;51.516;6.742;2023-05-10T02:05:00;100684.31;;;11.87;100.00
31285;BME280;56605;51.516;6.742;2023-05-10T02:07:27;100691.91;;;11.75;100.00
31285;BME280;56605;51.516;6.742;2023-05-10T02:09:53;100682.41;;;11.72;100.00
31285;BME280;56605;51.516;6.742;2023-05-10T02:12:20;100684.06;;;11.73;100.00
31285;BME280;56605;51.516;6.742;2023-05-10T02:14:47;100680.19;;;11.76;100.00
31285;BME280;56605;51.516;6.742;2023-05-10T02:17:13;100682.88;;;11.76;100.00
31285;BME280;56605;51.516;6.742;2023-05-10T02:19:41;100694.25;;;11.78;100.00
31285;BME280;56605;51.516;6.742;2023-05-10T02:22:07;100702.44;;;11.76;100.00
31285;BME280;56605;51.516;6.742;2023-05-10T02:24:34;100696.06;;;11.77;100.00
31285;BME280;56605;51.516;6.742;2023-05-10T02:27:02;100690.25;;;11.74;100.00
31285;BME280;56605;51.516;6.742;2023-05-10T02:29:29;100687.94;;;11.71;100.00
31285;BME280;56605;51.516;6.742;2023-05-10T02:31:57;100693.28;;;11.71;100.00
31285;BME280;56605;51.516;6.742;2023-05-10T02:34:23;100694.47;;;11.68;100.00
31285;BME280;56605;51.516;6.742;2023-05-10T02:36:50;100697.63;;;11.72;100.00
31285;BME280;56605;51.516;6.742;2023-05-10T02:39:21;100693.47;;;11.69;100.00
31285;BME280;56605;51.516;6.742;2023-05-10T02:41:48;100699.44;;;11.71;100.00
31285;BME280;56605;51.516;6.742;2023-05-10T02:44:15;100696.78;;;11.71;100.00
31285;BME280;56605;51.516;6.742;2023-05-10T02:46:42;100694.94;;;11.72;100.00
31285;BME280;56605;51.516;6.742;2023-05-10T02:49:08;100695.78;;;11.72;100.00
31285;BME280;56605;51.516;6.742;2023-05-10T02:51:36;100697.63;;;11.72;100.00
31285;BME280;56605;51.516;6.742;2023-05-10T02:54:08;100696.31;;;11.67;100.00
31285;BME280;56605;51.516;6.742;2023-05-10T02:56:36;100690.59;;;11.71;100.00
31285;BME280;56605;51.516;6.742;2023-05-10T02:59:05;100696.41;;;11.74;100.00
31285;BME280;56605;51.516;6.742;2023-05-10T03:01:31;100697.25;;;11.75;100.00
31285;BME280;56605;51.516;6.742;2023-05-10T03:03:56;100689.34;;;11.82;100.00
31285;BME280;56605;51.516;6.742;2023-05-10T03:06:21;100698.56;;;11.79;100.00
31285;BME280;56605;51.516;6.742;2023-05-10T03:08:47;100697.09;;;11.76;100.00
31285;BME280;56605;51.516;6.742;2023-05-10T03:17:10;100695.59;;;11.74;100.00
31285;BME280;56605;51.516;6.742;2023-05-10T03:19:45;100699.25;;;11.81;100.00
31285;BME280;56605;51.516;6.742;2023-05-10T03:22:13;100700.91;;;11.82;100.00
31285;BME280;56605;51.516;6.742;2023-05-10T03:24:43;100708.63;;;11.77;100.00
31285;BME280;56605;51.516;6.742;2023-05-10T03:27:09;100712.13;;;11.77;100.00
31285;BME280;56605;51.516;6.742;2023-05-10T03:29:36;100722.13;;;11.84;100.00
31285;BME280;56605;51.516;6.742;2023-05-10T03:32:02;100720.56;;;11.89;100.00
31285;BME280;56605;51.516;6.742;2023-05-10T03:34:29;100720.13;;;11.86;100.00
31285;BME280;56605;51.516;6.742;2023-05-10T03:36:55;100721.94;;;11.85;100.00
31285;BME280;56605;51.516;6.742;2023-05-10T03:39:20;100725.94;;;11.89;100.00
31285;BME280;56605;51.516;6.742;2023-05-10T03:41:46;100725.94;;;11.89;100.00
31285;BME280;56605;51.516;6.742;2023-05-10T03:44:11;100721.25;;;11.91;100.00
31285;BME280;56605;51.516;6.742;2023-05-10T03:46:37;100727.59;;;11.90;100.00
31285;BME280;56605;51.516;6.742;2023-05-10T03:49:02;100721.41;;;11.90;100.00
31285;BME280;56605;51.516;6.742;2023-05-10T03:51:27;100727.41;;;11.92;100.00
31285;BME280;56605;51.516;6.742;2023-05-10T03:53:54;100718.56;;;11.91;100.00
31285;BME280;56605;51.516;6.742;2023-05-10T03:56:19;100729.56;;;11.97;100.00
31285;BME280;56605;51.516;6.742;2023-05-10T03:58:46;100727.06;;;11.95;100.00
31285;BME280;56605;51.516;6.742;2023-05-10T04:01:11;100733.06;;;11.97;100.00
31285;BME280;56605;51.516;6.742;2023-05-10T04:03:36;100732.06;;;11.98;100.00
31285;BME280;56605;51.516;6.742;2023-05-10T04:06:02;100734.72;;;11.98;100.00
31285;BME280;56605;51.516;6.742;2023-05-10T04:08:27;100733.91;;;11.98;100.00
31285;BME280;56605;51.516;6.742;2023-05-10T04:10:53;100735.06;;;12.03;100.00
31285;BME280;56605;51.516;6.742;2023-05-10T04:13:18;100737.56;;;12.05;100.00
31285;BME280;56605;51.516;6.742;2023-05-10T04:15:44;100737.22;;;12.08;100.00
31285;BME280;56605;51.516;6.742;2023-05-10T04:18:09;100738.03;;;12.09;100.00
31285;BME280;56605;51.516;6.742;2023-05-10T04:20:35;100739.69;;;12.10;100.00
31285;BME280;56605;51.516;6.742;2023-05-10T04:23:00;100741.38;;;12.11;100.00
31285;BME280;56605;51.516;6.742;2023-05-10T04:25:25;100745.53;;;12.13;100.00
31285;BME280;56605;51.516;6.742;2023-05-10T04:27:51;100746.91;;;12.09;100.00
31285;BME280;56605;51.516;6.742;2023-05-10T04:30:17;100741.22;;;12.12;100.00
31285;BME280;56605;51.516;6.742;2023-05-10T04:32:42;100749.06;;;12.14;100.00
31285;BME280;56605;51.516;6.742;2023-05-10T04:35:07;100741.66;;;12.16;100.00
31285;BME280;56605;51.516;6.742;2023-05-10T04:37:35;100749.59;;;12.09;100.00
31285;BME280;56605;51.516;6.742;2023-05-10T04:40:00;100750.22;;;12.11;100.00
31285;BME280;56605;51.516;6.742;2023-05-10T04:42:25;100745.66;;;12.20;100.00
31285;BME280;56605;51.516;6.742;2023-05-10T04:44:51;100751.19;;;12.18;100.00
31285;BME280;56605;51.516;6.742;2023-05-10T04:47:17;100751.38;;;12.17;100.00
31285;BME280;56605;51.516;6.742;2023-05-10T04:49:42;100750.00;;;12.21;100.00
31285;BME280;56605;51.516;6.742;2023-05-10T04:52:07;100747.50;;;12.20;100.00
31285;BME280;56605;51.516;6.742;2023-05-10T04:54:32;100749.31;;;12.27;100.00
31285;BME280;56605;51.516;6.742;2023-05-10T04:56:58;100752.78;;;12.28;100.00
31285;BME280;56605;51.516;6.742;2023-05-10T04:59:23;100749.09;;;12.29;100.00
31285;BME280;56605;51.516;6.742;2023-05-10T05:01:48;100754.69;;;12.19;100.00
31285;BME280;56605;51.516;6.742;2023-05-10T05:04:14;100759.22;;;12.18;100.00
31285;BME280;56605;51.516;6.742;2023-05-10T05:06:39;100757.13;;;12.29;100.00
31285;BME280;56605;51.516;6.742;2023-05-10T05:09:05;100749.00;;;12.22;100.00
31285;BME280;56605;51.516;6.742;2023-05-10T05:11:30;100753.16;;;12.25;100.00
31285;BME280;56605;51.516;6.742;2023-05-10T05:13:55;100757.50;;;12.26;100.00
31285;BME280;56605;51.516;6.742;2023-05-10T05:16:21;100765.28;;;12.36;100.00
31285;BME280;56605;51.516;6.742;2023-05-10T05:18:46;100760.56;;;12.38;100.00
31285;BME280;56605;51.516;6.742;2023-05-10T05:21:18;100763.47;;;12.36;100.00
31285;BME280;56605;51.516;6.742;2023-05-10T05:23:45;100778.84;;;12.34;100.00
31285;BME280;56605;51.516;6.742;2023-05-10T05:26:10;100775.34;;;12.34;100.00
31285;BME280;56605;51.516;6.742;2023-05-10T05:28:36;100771.66;;;12.35;100.00
31285;BME280;56605;51.516;6.742;2023-05-10T05:31:06;100773.50;;;12.34;100.00
31285;BME280;56605;51.516;6.742;2023-05-10T05:33:32;100775.47;;;12.40;100.00
31285;BME280;56605;51.516;6.742;2023-05-10T05:36:00;100780.13;;;12.47;100.00
31285;BME280;56605;51.516;6.742;2023-05-10T05:38:26;100782.66;;;12.40;100.00
31285;BME280;56605;51.516;6.742;2023-05-10T05:40:51;100784.31;;;12.41;100.00
31285;BME280;56605;51.516;6.742;2023-05-10T05:43:16;100781.28;;;12.44;100.00
31285;BME280;56605;51.516;6.742;2023-05-10T05:45:42;100793.59;;;12.53;100.00
31285;BME280;56605;51.516;6.742;2023-05-10T05:48:07;100790.22;;;12.60;100.00
31285;BME280;56605;51.516;6.742;2023-05-10T05:50:32;100784.91;;;12.51;100.00
31285;BME280;56605;51.516;6.742;2023-05-10T05:52:58;100786.09;;;12.49;100.00
31285;BME280;56605;51.516;6.742;2023-05-10T05:55:23;100791.78;;;12.54;100.00
31285;BME280;56605;51.516;6.742;2023-05-10T05:57:49;100793.84;;;12.67;100.00
31285;BME280;56605;51.516;6.742;2023-05-10T06:00:15;100795.31;;;12.70;100.00
31285;BME280;56605;51.516;6.742;2023-05-10T06:02:40;100799.41;;;12.80;100.00
31285;BME280;56605;51.516;6.742;2023-05-10T06:05:06;100805.31;;;12.76;100.00
31285;BME280;56605;51.516;6.742;2023-05-10T06:07:31;100814.28;;;12.83;100.00
31285;BME280;56605;51.516;6.742;2023-05-10T06:09:57;100808.22;;;12.89;100.00
31285;BME280;56605;51.516;6.742;2023-05-10T06:12:22;100813.09;;;12.86;100.00
31285;BME280;56605;51.516;6.742;2023-05-10T06:14:47;100811.47;;;12.76;100.00
31285;BME280;56605;51.516;6.742;2023-05-10T06:17:13;100809.56;;;12.85;100.00
31285;BME280;56605;51.516;6.742;2023-05-10T06:19:38;100809.13;;;12.81;100.00
31285;BME280;56605;51.516;6.742;2023-05-10T06:22:03;100813.56;;;12.89;100.00
31285;BME280;56605;51.516;6.742;2023-05-10T06:24:29;100814.22;;;12.91;100.00
31285;BME280;56605;51.516;6.742;2023-05-10T06:26:54;100820.84;;;12.80;100.00
31285;BME280;56605;51.516;6.742;2023-05-10T06:29:20;100823.34;;;12.82;100.00
31285;BME280;56605;51.516;6.742;2023-05-10T06:31:45;100818.16;;;12.80;100.00
31285;BME280;56605;51.516;6.742;2023-05-10T06:34:10;100817.16;;;12.81;100.00
31285;BME280;56605;51.516;6.742;2023-05-10T06:36:36;100828.72;;;12.82;100.00
31285;BME280;56605;51.516;6.742;2023-05-10T06:39:02;100822.28;;;12.68;100.00
31285;BME280;56605;51.516;6.742;2023-05-10T06:41:27;100828.75;;;12.74;100.00
31285;BME280;56605;51.516;6.742;2023-05-10T06:43:53;100831.25;;;12.75;100.00
31285;BME280;56605;51.516;6.742;2023-05-10T06:46:18;100835.59;;;12.76;100.00
31285;BME280;56605;51.516;6.742;2023-05-10T06:48:44;100831.22;;;12.84;100.00
31285;BME280;56605;51.516;6.742;2023-05-10T06:51:09;100831.97;;;12.92;100.00
31285;BME280;56605;51.516;6.742;2023-05-10T06:53:35;100839.94;;;13.01;100.00
31285;BME280;56605;51.516;6.742;2023-05-10T06:56:01;100833.38;;;13.03;100.00
31285;BME280;56605;51.516;6.742;2023-05-10T06:58:27;100833.22;;;13.20;100.00
31285;BME280;56605;51.516;6.742;2023-05-10T07:01:04;100829.16;;;13.24;100.00
31285;BME280;56605;51.516;6.742;2023-05-10T07:03:30;100826.41;;;13.32;100.00
31285;BME280;56605;51.516;6.742;2023-05-10T07:06:03;100829.63;;;13.28;100.00
31285;BME280;56605;51.516;6.742;2023-05-10T07:08:32;100836.28;;;13.32;100.00
31285;BME280;56605;51.516;6.742;2023-05-10T07:11:05;100826.09;;;13.27;100.00
31285;BME280;56605;51.516;6.742;2023-05-10T07:13:32;100837.91;;;13.18;100.00
31285;BME280;56605;51.516;6.742;2023-05-10T07:15:58;100845.19;;;13.09;100.00
31285;BME280;56605;51.516;6.742;2023-05-10T07:18:24;100833.56;;;13.17;100.00
31285;BME280;56605;51.516;6.742;2023-05-10T07:20:49;100837.66;;;13.13;100.00
31285;BME280;56605;51.516;6.742;2023-05-10T07:23:15;100842.66;;;13.16;100.00
31285;BME280;56605;51.516;6.742;2023-05-10T07:25:45;100849.97;;;13.22;100.00
31285;BME280;56605;51.516;6.742;2023-05-10T07:28:10;100842.56;;;13.24;100.00
31285;BME280;56605;51.516;6.742;2023-05-10T07:30:35;100840.81;;;13.31;100.00
31285;BME280;56605;51.516;6.742;2023-05-10T07:33:01;100837.03;;;13.41;100.00
31285;BME280;56605;51.516;6.742;2023-05-10T07:35:26;100839.44;;;13.51;100.00
31285;BME280;56605;51.516;6.742;2023-05-10T07:37:51;100842.78;;;13.53;100.00
31285;BME280;56605;51.516;6.742;2023-05-10T07:40:17;100841.13;;;13.52;100.00
31285;BME280;56605;51.516;6.742;2023-05-10T07:42:42;100844.72;;;13.44;100.00
31285;BME280;56605;51.516;6.742;2023-05-10T07:45:08;100848.78;;;13.40;100.00
31285;BME280;56605;51.516;6.742;2023-05-10T07:47:33;100844.22;;;13.40;100.00
31285;BME280;56605;51.516;6.742;2023-05-10T07:49:59;100852.31;;;13.55;100.00
31285;BME280;56605;51.516;6.742;2023-05-10T07:52:24;100857.22;;;13.82;100.00
31285;BME280;56605;51.516;6.742;2023-05-10T07:54:49;100853.22;;;14.08;100.00
31285;BME280;56605;51.516;6.742;2023-05-10T07:57:15;100853.47;;;14.13;100.00
31285;BME280;56605;51.516;6.742;2023-05-10T07:59:42;100855.19;;;14.36;100.00
31285;BME280;56605;51.516;6.742;2023-05-10T08:02:08;100851.88;;;14.19;100.00
31285;BME280;56605;51.516;6.742;2023-05-10T08:04:33;100847.19;;;14.43;100.00
31285;BME280;56605;51.516;6.742;2023-05-10T08:06:58;100852.13;;;14.61;100.00
31285;BME280;56605;51.516;6.742;2023-05-10T08:09:24;100865.97;;;14.65;100.00
31285;BME280;56605;51.516;6.742;2023-05-10T08:11:50;100858.06;;;14.56;100.00
31285;BME280;56605;51.516;6.742;2023-05-10T08:14:16;100852.13;;;14.61;100.00
31285;BME280;56605;51.516;6.742;2023-05-10T08:16:44;100857.69;;;14.81;100.00
31285;BME280;56605;51.516;6.742;2023-05-10T08:19:09;100860.69;;;14.93;100.00
31285;BME280;56605;51.516;6.742;2023-05-10T08:21:35;100855.94;;;14.95;100.00
31285;BME280;56605;51.516;6.742;2023-05-10T08:24:01;100863.13;;;15.10;100.00
31285;BME280;56605;51.516;6.742;2023-05-10T08:26:26;100861.78;;;14.55;100.00
31285;BME280;56605;51.516;6.742;2023-05-10T08:28:51;100860.84;;;14.26;100.00
31285;BME280;56605;51.516;6.742;2023-05-10T08:31:17;100865.06;;;13.99;100.00
31285;BME280;56605;51.516;6.742;2023-05-10T08:33:43;100857.56;;;13.94;100.00
31285;BME280;56605;51.516;6.742;2023-05-10T08:36:08;100865.63;;;13.94;100.00
31285;BME280;56605;51.516;6.742;2023-05-10T08:38:33;100878.31;;;14.37;100.00
31285;BME280;56605;51.516;6.742;2023-05-10T08:40:59;100878.66;;;14.93;100.00
31285;BME280;56605;51.516;6.742;2023-05-10T08:43:27;100877.00;;;15.14;100.00
31285;BME280;56605;51.516;6.742;2023-05-10T08:45:54;100877.06;;;15.20;100.00
31285;BME280;56605;51.516;6.742;2023-05-10T08:48:23;100880.91;;;15.11;100.00
31285;BME280;56605;51.516;6.742;2023-05-10T08:50:53;100890.69;;;14.75;100.00
31285;BME280;56605;51.516;6.742;2023-05-10T08:53:20;100894.78;;;14.71;100.00
31285;BME280;56605;51.516;6.742;2023-05-10T08:55:46;100898.34;;;14.93;100.00
31285;BME280;56605;51.516;6.742;2023-05-10T08:58:12;100895.19;;;14.90;100.00
31285;BME280;56605;51.516;6.742;2023-05-10T09:00:37;100897.81;;;15.05;100.00
31285;BME280;56605;51.516;6.742;2023-05-10T09:03:05;100897.81;;;14.83;100.00
31285;BME280;56605;51.516;6.742;2023-05-10T09:05:31;100905.78;;;14.76;100.00
31285;BME280;56605;51.516;6.742;2023-05-10T09:07:57;100902.53;;;14.81;100.00
31285;BME280;56605;51.516;6.742;2023-05-10T09:10:25;100900.88;;;14.80;100.00
31285;BME280;56605;51.516;6.742;2023-05-10T09:12:53;100902.53;;;14.81;100.00
31285;BME280;56605;51.516;6.742;2023-05-10T09:15:21;100908.22;;;15.15;100.00
31285;BME280;56605;51.516;6.742;2023-05-10T09:17:47;100909.59;;;15.04;100.00
31285;BME280;56605;51.516;6.742;2023-05-10T09:20:14;100911.47;;;14.66;100.00
31285;BME280;56605;51.516;6.742;2023-05-10T09:22:39;100911.78;;;14.56;100.00
31285;BME280;56605;51.516;6.742;2023-05-10T09:25:13;100915.53;;;14.40;100.00
31285;BME280;56605;51.516;6.742;2023-05-10T09:27:40;100922.59;;;14.26;100.00
31285;BME280;56605;51.516;6.742;2023-05-10T09:30:07;100923.25;;;14.28;100.00
31285;BME280;56605;51.516;6.742;2023-05-10T09:32:42;100922.03;;;14.16;100.00
31285;BME280;56605;51.516;6.742;2023-05-10T09:35:18;100928.44;;;14.15;100.00
31285;BME280;56605;51.516;6.742;2023-05-10T09:37:46;100928.06;;;14.18;100.00
31285;BME280;56605;51.516;6.742;2023-05-10T09:40:20;100926.38;;;14.32;100.00
31285;BME280;56605;51.516;6.742;2023-05-10T09:43:12;100935.94;;;14.35;100.00
31285;BME280;56605;51.516;6.742;2023-05-10T09:45:40;100934.41;;;14.47;100.00
31285;BME280;56605;51.516;6.742;2023-05-10T09:48:06;100936.69;;;14.28;100.00
31285;BME280;56605;51.516;6.742;2023-05-10T09:50:31;100937.72;;;14.12;100.00
31285;BME280;56605;51.516;6.742;2023-05-10T09:52:58;100948.72;;;14.17;100.00
31285;BME280;56605;51.516;6.742;2023-05-10T09:55:45;100940.94;;;14.07;100.00
31285;BME280;56605;51.516;6.742;2023-05-10T09:58:12;100946.88;;;14.03;100.00
31285;BME280;56605;51.516;6.742;2023-05-10T10:00:39;100947.53;;;13.90;100.00
31285;BME280;56605;51.516;6.742;2023-05-10T10:03:05;100951.94;;;13.67;100.00
31285;BME280;56605;51.516;6.742;2023-05-10T10:05:32;100948.34;;;13.60;100.00
31285;BME280;56605;51.516;6.742;2023-05-10T10:07:58;100954.53;;;13.61;100.00
31285;BME280;56605;51.516;6.742;2023-05-10T10:10:25;100962.00;;;13.65;100.00
31285;BME280;56605;51.516;6.742;2023-05-10T10:12:51;100955.28;;;13.85;100.00
31285;BME280;56605;51.516;6.742;2023-05-10T10:15:17;100958.25;;;13.90;100.00
31285;BME280;56605;51.516;6.742;2023-05-10T10:17:43;100954.09;;;13.72;100.00
31285;BME280;56605;51.516;6.742;2023-05-10T10:20:09;100967.59;;;13.79;100.00
31285;BME280;56605;51.516;6.742;2023-05-10T10:22:37;100964.53;;;13.82;100.00
31285;BME280;56605;51.516;6.742;2023-05-10T10:25:04;100959.19;;;13.97;100.00
31285;BME280;56605;51.516;6.742;2023-05-10T10:30:25;100961.31;;;14.17;100.00
31285;BME280;56605;51.516;6.742;2023-05-10T10:33:10;100971.84;;;14.18;100.00
31285;BME280;56605;51.516;6.742;2023-05-10T10:35:39;100957.78;;;14.16;100.00
31285;BME280;56605;51.516;6.742;2023-05-10T10:38:07;100970.72;;;14.43;100.00
31285;BME280;56605;51.516;6.742;2023-05-10T10:40:33;100969.06;;;14.42;100.00
31285;BME280;56605;51.516;6.742;2023-05-10T10:46:15;100959.59;;;14.61;100.00
31285;BME280;56605;51.516;6.742;2023-05-10T10:48:47;100970.09;;;14.78;100.00
31285;BME280;56605;51.516;6.742;2023-05-10T10:51:14;100961.84;;;14.79;100.00
31285;BME280;56605;51.516;6.742;2023-05-10T10:53:40;100971.78;;;14.79;100.00
31285;BME280;56605;51.516;6.742;2023-05-10T10:56:12;100980.41;;;14.74;100.00
31285;BME280;56605;51.516;6.742;2023-05-10T10:58:40;100977.72;;;14.59;100.00
31285;BME280;56605;51.516;6.742;2023-05-10T11:01:17;100979.38;;;14.60;100.00
31285;BME280;56605;51.516;6.742;2023-05-10T11:04:18;100971.59;;;14.80;100.00
31285;BME280;56605;51.516;6.742;2023-05-10T11:06:44;100979.06;;;14.85;100.00
31285;BME280;56605;51.516;6.742;2023-05-10T11:09:11;100980.56;;;14.88;100.00
31285;BME280;56605;51.516;6.742;2023-05-10T11:11:52;100988.97;;;15.00;100.00
31285;BME280;56605;51.516;6.742;2023-05-10T11:14:32;100975.75;;;15.27;100.00
31285;BME280;56605;51.516;6.742;2023-05-10T11:16:58;100990.13;;;15.63;100.00
31285;BME280;56605;51.516;6.742;2023-05-10T11:19:27;100981.25;;;15.40;100.00
31285;BME280;56605;51.516;6.742;2023-05-10T11:22:12;100976.41;;;15.29;100.00
31285;BME280;56605;51.516;6.742;2023-05-10T11:24:56;100986.72;;;15.03;100.00
31285;BME280;56605;51.516;6.742;2023-05-10T11:27:21;100982.28;;;14.95;100.00
31285;BME280;56605;51.516;6.742;2023-05-10T11:29:51;100984.25;;;14.87;100.00
31285;BME280;56605;51.516;6.742;2023-05-10T11:32:17;100982.41;;;15.09;100.00
31285;BME280;56605;51.516;6.742;2023-05-10T11:34:47;100990.63;;;15.23;100.00
31285;BME280;56605;51.516;6.742;2023-05-10T11:37:13;100987.75;;;15.24;100.00
31285;BME280;56605;51.516;6.742;2023-05-10T11:39:38;100997.38;;;15.12;100.00
31285;BME280;56605;51.516;6.742;2023-05-10T11:42:03;100997.38;;;15.12;100.00
31285;BME280;56605;51.516;6.742;2023-05-10T11:44:30;100985.81;;;15.18;100.00
31285;BME280;56605;51.516;6.742;2023-05-10T11:46:59;100993.25;;;15.16;100.00
31285;BME280;56605;51.516;6.742;2023-05-10T11:49:25;100997.75;;;15.08;100.00
31285;BME280;56605;51.516;6.742;2023-05-10T11:51:51;100994.81;;;14.88;100.00
31285;BME280;56605;51.516;6.742;2023-05-10T11:54:16;100998.56;;;15.09;100.00
31285;BME280;56605;51.516;6.742;2023-05-10T11:56:41;101002.47;;;15.06;100.00
31285;BME280;56605;51.516;6.742;2023-05-10T11:59:06;101004.50;;;15.04;100.00
31285;BME280;56605;51.516;6.742;2023-05-10T12:01:33;100994.88;;;15.10;100.00
31285;BME280;56605;51.516;6.742;2023-05-10T12:04:04;101004.19;;;15.36;100.00
31285;BME280;56605;51.516;6.742;2023-05-10T12:06:31;101000.47;;;15.59;100.00
31285;BME280;56605;51.516;6.742;2023-05-10T12:08:57;100991.28;;;15.53;100.00
31285;BME280;56605;51.516;6.742;2023-05-10T12:11:27;100999.56;;;15.52;100.00
31285;BME280;56605;51.516;6.742;2023-05-10T12:13:54;101001.66;;;15.56;100.00
31285;BME280;56605;51.516;6.742;2023-05-10T12:16:21;101005.16;;;15.79;100.00
31285;BME280;56605;51.516;6.742;2023-05-10T12:18:51;100995.59;;;15.47;100.00
31285;BME280;56605;51.516;6.742;2023-05-10T12:21:19;100996.00;;;15.23;100.00
31285;BME280;56605;51.516;6.742;2023-05-10T12:23:52;101002.47;;;15.28;100.00
31285;BME280;56605;51.516;6.742;2023-05-10T12:26:18;100999.63;;;15.15;100.00
31285;BME280;56605;51.516;6.742;2023-05-10T12:28:43;100998.56;;;15.53;100.00
31285;BME280;56605;51.516;6.742;2023-05-10T12:31:09;100998.88;;;15.71;100.00
31285;BME280;56605;51.516;6.742;2023-05-10T12:33:39;101010.31;;;16.02;100.00
31285;BME280;56605;51.516;6.742;2023-05-10T12:36:08;100997.97;;;16.21;100.00
31285;BME280;56605;51.516;6.742;2023-05-10T12:38:41;100995.66;;;16.54;100.00
31285;BME280;56605;51.516;6.742;2023-05-10T12:41:18;100995.56;;;16.89;100.00
31285;BME280;56605;51.516;6.742;2023-05-10T12:43:44;100992.75;;;17.31;100.00
31285;BME280;56605;51.516;6.742;2023-05-10T12:46:12;101007.50;;;17.42;100.00
31285;BME280;56605;51.516;6.742;2023-05-10T12:48:38;101002.94;;;17.63;100.00
31285;BME280;56605;51.516;6.742;2023-05-10T12:51:05;100998.78;;;17.60;100.00
31285;BME280;56605;51.516;6.742;2023-05-10T12:53:33;100985.66;;;17.84;100.00
31285;BME280;56605;51.516;6.742;2023-05-10T12:55:59;100988.81;;;18.54;100.00
31285;BME280;56605;51.516;6.742;2023-05-10T12:58:24;101000.72;;;18.46;100.00
31285;BME280;56605;51.516;6.742;2023-05-10T13:00:50;100992.25;;;18.02;100.00
31285;BME280;56605;51.516;6.742;2023-05-10T13:03:16;101003.13;;;17.89;100.00
31285;BME280;56605;51.516;6.742;2023-05-10T13:05:42;100999.97;;;17.98;100.00